Time;durP1;ratioP1;P1;durP2;ratioP2;P2;SDS_P1;SDS_P2;PMS_P1;PMS_P2;Temp;Humidity;BMP_temperature;BMP_pressure;BME280_temperature;BME280_humidity;BME280_pressure;Samples;Min_cycle;Max_cycle;Signal;HPM_P1;HPM_P2
2023/01/12 00:01:07;;;;;;;0.30;0.30;;;11.10;59.10;;;;;;4879991;29;20084;-88
2023/01/12 00:03:32;;;;;;;0.32;0.32;;;11.20;59.10;;;;;;4881036;29;20123;-89
2023/01/12 00:06:06;;;;;;;0.25;0.25;;;11.30;58.90;;;;;;4881752;29;20124;-89
2023/01/12 00:08:33;;;;;;;0.40;0.40;;;11.30;58.80;;;;;;4882049;29;20028;-89
2023/01/12 00:10:59;;;;;;;0.30;0.30;;;11.50;58.40;;;;;;4881621;29;20041;-93
2023/01/12 00:13:24;;;;;;;0.30;0.30;;;11.70;58.30;;;;;;4881941;29;20084;-93
2023/01/12 00:18:34;;;;;;;0.32;0.32;;;11.50;57.90;;;;;;4898935;29;20246;-89
2023/01/12 00:21:00;;;;;;;0.30;0.30;;;10.70;59.80;;;;;;4882051;29;20507;-91
2023/01/12 00:23:26;;;;;;;0.30;0.30;;;10.50;60.30;;;;;;4881959;29;20021;-92
2023/01/12 00:25:53;;;;;;;0.30;0.30;;;10.10;61.70;;;;;;4882779;29;20076;-93
2023/01/12 00:28:19;;;;;;;0.32;0.32;;;10.30;61.20;;;;;;4876862;29;20033;-94
2023/01/12 00:30:44;;;;;;;0.30;0.30;;;10.60;60.60;;;;;;4888671;29;20477;-96
2023/01/12 00:33:10;;;;;;;0.30;0.30;;;10.90;60.00;;;;;;4873406;29;20041;-89
2023/01/12 00:35:36;;;;;;;0.30;0.30;;;11.20;59.80;;;;;;4878698;29;20021;-91
2023/01/12 00:38:02;;;;;;;0.20;0.20;;;11.60;58.50;;;;;;4864486;29;20033;-90
2023/01/12 00:40:28;;;;;;;0.30;0.30;;;11.80;58.30;;;;;;4872074;29;20033;-94
2023/01/12 00:45:37;;;;;;;0.20;0.20;;;11.60;58.50;;;;;;4898230;29;20047;-95
2023/01/12 00:48:03;;;;;;;0.30;0.30;;;11.80;58.00;;;;;;4878476;29;20029;-93
2023/01/12 00:50:29;;;;;;;0.30;0.30;;;12.10;57.80;;;;;;4880150;29;20037;-92
2023/01/12 00:52:55;;;;;;;0.30;0.30;;;12.20;57.10;;;;;;4883185;29;20063;-94
2023/01/12 00:55:20;;;;;;;0.30;0.30;;;11.90;57.60;;;;;;4882276;29;20040;-90
2023/01/12 00:57:46;;;;;;;0.30;0.30;;;11.70;57.90;;;;;;4880476;29;20758;-90
2023/01/12 01:00:13;;;;;;;0.30;0.30;;;11.70;57.90;;;;;;4883546;29;20040;-93
2023/01/12 01:02:38;;;;;;;0.28;0.28;;;11.90;57.80;;;;;;4883211;29;20111;-94
2023/01/12 01:05:04;;;;;;;0.30;0.30;;;12.00;57.30;;;;;;4883065;29;20069;-90
2023/01/12 01:07:30;;;;;;;0.40;0.40;;;11.90;57.00;;;;;;4883174;29;20036;-91
2023/01/12 01:09:56;;;;;;;0.28;0.28;;;11.70;57.40;;;;;;4882915;29;20028;-90
2023/01/12 01:12:22;;;;;;;0.30;0.30;;;11.60;57.30;;;;;;4882653;29;20040;-92
2023/01/12 01:14:47;;;;;;;0.40;0.40;;;11.50;57.70;;;;;;4892885;29;20085;-93
2023/01/12 01:17:13;;;;;;;0.20;0.20;;;11.50;57.60;;;;;;4885191;29;20039;-95
2023/01/12 01:19:39;;;;;;;0.30;0.30;;;11.60;57.50;;;;;;4884858;29;20423;-89
2023/01/12 01:22:05;;;;;;;0.30;0.30;;;11.80;56.90;;;;;;4884919;29;20043;-89
2023/01/12 01:24:31;;;;;;;0.30;0.30;;;11.60;57.50;;;;;;4885107;29;20119;-89
2023/01/12 01:26:56;;;;;;;0.20;0.20;;;11.60;57.60;;;;;;4882672;29;20119;-89
2023/01/12 01:29:22;;;;;;;0.38;0.38;;;11.60;57.10;;;;;;4894735;29;20480;-92
2023/01/12 01:31:48;;;;;;;0.30;0.30;;;11.60;57.60;;;;;;4884676;29;20068;-90
2023/01/12 01:34:14;;;;;;;0.30;0.30;;;11.80;57.10;;;;;;4884713;29;20033;-90
2023/01/12 01:36:39;;;;;;;0.20;0.20;;;12.00;56.70;;;;;;4884965;29;20033;-95
2023/01/12 01:39:07;;;;;;;0.30;0.30;;;12.00;57.00;;;;;;4884791;29;20093;-89
2023/01/12 01:41:33;;;;;;;0.32;0.32;;;12.00;57.10;;;;;;4885068;29;20052;-91
2023/01/12 01:44:26;;;;;;;0.20;0.20;;;12.10;56.80;;;;;;4884700;29;20396;-87
2023/01/12 01:46:56;;;;;;;0.20;0.20;;;12.20;56.90;;;;;;4874648;29;20036;-95
2023/01/12 01:49:45;;;;;;;0.30;0.30;;;12.20;56.40;;;;;;4884630;29;20449;-95
2023/01/12 01:52:15;;;;;;;0.30;0.30;;;12.10;56.70;;;;;;4884400;29;20044;-90
2023/01/12 01:54:46;;;;;;;0.20;0.20;;;11.90;57.70;;;;;;4884641;29;20481;-89
2023/01/12 01:57:14;;;;;;;0.30;0.30;;;11.90;57.40;;;;;;4884390;29;20037;-94
2023/01/12 01:59:44;;;;;;;0.30;0.30;;;11.90;57.50;;;;;;4884462;29;20028;-88
2023/01/12 02:02:14;;;;;;;0.30;0.30;;;12.10;57.20;;;;;;4883670;29;20032;-93
2023/01/12 02:04:40;;;;;;;0.30;0.30;;;12.30;57.20;;;;;;4872378;29;20033;-91
2023/01/12 02:07:07;;;;;;;0.30;0.30;;;12.40;56.60;;;;;;4884460;29;20036;-88
2023/01/12 02:09:33;;;;;;;0.22;0.22;;;12.50;57.20;;;;;;4883867;29;20024;-93
2023/01/12 02:18:12;;;;;;;0.30;0.30;;;12.20;57.20;;;;;;4902293;29;20124;-93
2023/01/12 02:20:55;;;;;;;0.30;0.30;;;12.10;57.50;;;;;;4885040;29;20048;-94
2023/01/12 02:23:39;;;;;;;0.20;0.20;;;11.70;57.80;;;;;;4885038;29;20063;-88
2023/01/12 02:26:20;;;;;;;0.30;0.30;;;11.60;58.50;;;;;;4884190;29;20036;-90
2023/01/12 02:28:51;;;;;;;0.25;0.25;;;11.20;58.40;;;;;;4881636;29;20021;-90
2023/01/12 02:31:26;;;;;;;0.30;0.30;;;11.40;58.80;;;;;;4897198;29;20084;-91
2023/01/12 02:34:13;;;;;;;0.40;0.40;;;11.60;59.00;;;;;;4883380;29;20032;-91
2023/01/12 02:37:07;;;;;;;0.25;0.25;;;11.80;58.00;;;;;;4883622;29;20021;-90
2023/01/12 02:39:50;;;;;;;0.20;0.20;;;12.00;57.90;;;;;;4883372;29;20092;-87
2023/01/12 02:42:40;;;;;;;0.30;0.30;;;12.10;57.40;;;;;;4883651;29;20028;-88
2023/01/12 02:45:25;;;;;;;0.30;0.30;;;12.10;57.10;;;;;;4892272;29;20037;-91
2023/01/12 02:48:10;;;;;;;0.20;0.20;;;11.80;57.80;;;;;;4866198;29;20037;-91
2023/01/12 02:51:09;;;;;;;0.30;0.30;;;11.90;57.90;;;;;;4882960;29;20032;-89
2023/01/12 02:53:42;;;;;;;0.30;0.30;;;12.00;57.70;;;;;;4883941;29;20377;-90
2023/01/12 02:56:17;;;;;;;0.38;0.38;;;12.00;57.40;;;;;;4884232;29;20080;-89
2023/01/12 02:58:57;;;;;;;0.30;0.30;;;11.80;57.90;;;;;;4887294;29;20017;-89
2023/01/12 03:01:24;;;;;;;0.20;0.20;;;11.80;57.80;;;;;;4890025;29;20077;-87
2023/01/12 03:03:51;;;;;;;0.22;0.22;;;11.80;58.00;;;;;;4871585;29;20395;-89
2023/01/12 03:06:17;;;;;;;0.30;0.30;;;11.60;58.90;;;;;;4879373;29;20032;-88
2023/01/12 03:08:46;;;;;;;0.32;0.32;;;11.60;58.70;;;;;;4889818;29;20032;-89
2023/01/12 03:11:33;;;;;;;0.40;0.40;;;11.70;58.50;;;;;;4886708;29;20123;-94
2023/01/12 03:14:01;;;;;;;0.30;0.30;;;11.90;58.20;;;;;;4877255;29;20035;-96
2023/01/12 03:16:32;;;;;;;0.20;0.20;;;12.10;57.90;;;;;;4889815;29;20115;-88
2023/01/12 03:19:08;;;;;;;0.30;0.30;;;12.30;57.40;;;;;;4890452;29;20040;-94
2023/01/12 03:21:45;;;;;;;0.35;0.35;;;12.30;57.40;;;;;;4884599;29;20510;-88
2023/01/12 03:24:14;;;;;;;0.30;0.30;;;12.40;57.10;;;;;;4896574;29;20028;-88
2023/01/12 03:26:46;;;;;;;0.32;0.32;;;12.30;57.30;;;;;;4892521;29;20413;-94
2023/01/12 03:29:50;;;;;;;0.20;0.20;;;12.10;57.60;;;;;;4891867;29;20032;-88
2023/01/12 03:32:17;;;;;;;0.30;0.30;;;12.10;57.60;;;;;;4890979;29;20041;-88
2023/01/12 03:34:47;;;;;;;0.30;0.30;;;11.80;58.40;;;;;;4892252;29;20039;-88
2023/01/12 03:37:36;;;;;;;0.30;0.30;;;12.00;58.30;;;;;;4890581;29;20407;-88
2023/01/12 03:40:36;;;;;;;0.20;0.20;;;12.10;57.70;;;;;;4887380;29;20033;-89
2023/01/12 03:43:02;;;;;;;0.20;0.20;;;12.20;57.80;;;;;;4886215;29;20110;-89
2023/01/12 03:46:10;;;;;;;0.30;0.30;;;12.30;58.30;;;;;;4898926;29;20016;-96
2023/01/12 03:49:00;;;;;;;0.30;0.30;;;12.20;58.20;;;;;;4802009;29;20460;-88
2023/01/12 03:51:36;;;;;;;0.20;0.20;;;12.10;58.00;;;;;;4805022;29;20118;-96
2023/01/12 03:54:05;;;;;;;0.30;0.30;;;11.90;58.60;;;;;;4792167;29;20437;-88
2023/01/12 03:56:42;;;;;;;0.30;0.30;;;11.80;58.90;;;;;;4794752;29;20038;-93
2023/01/12 03:59:08;;;;;;;0.38;0.38;;;11.90;59.20;;;;;;4792296;29;20047;-90
2023/01/12 04:01:34;;;;;;;0.30;0.30;;;11.90;58.70;;;;;;4802150;29;20079;-95
2023/01/12 04:04:00;;;;;;;0.30;0.30;;;12.10;58.40;;;;;;4796757;29;20039;-91
2023/01/12 04:06:26;;;;;;;0.25;0.25;;;11.80;59.30;;;;;;4795270;29;20061;-96
2023/01/12 04:08:51;;;;;;;0.30;0.30;;;11.80;59.10;;;;;;4810164;29;20102;-94
2023/01/12 04:14:01;;;;;;;0.20;0.20;;;11.80;59.30;;;;;;4808810;29;20410;-95
2023/01/12 04:16:27;;;;;;;0.40;0.40;;;11.60;60.10;;;;;;4793896;29;20039;-95
2023/01/12 04:18:53;;;;;;;0.32;0.32;;;11.60;60.50;;;;;;4807073;29;20030;-90
2023/01/12 04:24:03;;;;;;;0.30;0.30;;;11.50;60.90;;;;;;4892959;29;20925;-90
2023/01/12 04:26:28;;;;;;;0.30;0.30;;;11.20;61.70;;;;;;4882350;29;20032;-89
2023/01/12 04:28:54;;;;;;;0.22;0.22;;;11.00;62.50;;;;;;4880591;29;20033;-90
2023/01/12 04:31:20;;;;;;;0.22;0.22;;;11.40;61.40;;;;;;4882901;29;20045;-89
2023/01/12 04:33:45;;;;;;;0.30;0.30;;;11.20;61.50;;;;;;4882256;29;20488;-88
2023/01/12 04:36:11;;;;;;;0.28;0.28;;;11.20;62.00;;;;;;4880442;29;20041;-90
2023/01/12 04:38:38;;;;;;;0.30;0.30;;;11.10;62.50;;;;;;4882348;29;20111;-94
2023/01/12 04:41:05;;;;;;;0.30;0.30;;;11.40;62.10;;;;;;4883145;29;20457;-90
2023/01/12 04:43:32;;;;;;;0.40;0.40;;;11.40;62.40;;;;;;4881727;29;20080;-89
2023/01/12 04:46:02;;;;;;;0.20;0.20;;;11.60;61.30;;;;;;4881662;29;20123;-88
2023/01/12 04:48:28;;;;;;;0.40;0.40;;;11.90;61.00;;;;;;4883712;29;20043;-90
2023/01/12 04:50:54;;;;;;;0.30;0.30;;;12.00;60.80;;;;;;4885602;29;20033;-88
2023/01/12 04:53:20;;;;;;;0.20;0.20;;;12.10;60.50;;;;;;4885633;29;20406;-87
2023/01/12 04:55:46;;;;;;;0.30;0.30;;;12.30;60.50;;;;;;4887708;29;20111;-87
2023/01/12 04:58:12;;;;;;;0.30;0.30;;;12.30;60.20;;;;;;4886107;29;20441;-90
2023/01/12 05:00:37;;;;;;;0.30;0.30;;;12.20;60.70;;;;;;4889563;29;20025;-90
2023/01/12 05:03:03;;;;;;;0.20;0.20;;;12.10;60.40;;;;;;4887187;29;20037;-90
2023/01/12 05:05:31;;;;;;;0.20;0.20;;;11.50;62.00;;;;;;4887103;29;20465;-89
2023/01/12 05:10:56;;;;;;;0.40;0.40;;;10.20;63.80;;;;;;4906351;29;20063;-91
2023/01/12 05:13:23;;;;;;;0.30;0.30;;;9.60;65.70;;;;;;4892044;29;20480;-89
2023/01/12 05:15:49;;;;;;;0.30;0.30;;;8.70;68.00;;;;;;4893680;29;20407;-89
2023/01/12 05:18:15;;;;;;;0.32;0.32;;;8.30;70.30;;;;;;4908496;29;20032;-87
2023/01/12 05:20:41;;;;;;;0.20;0.20;;;8.60;71.50;;;;;;4892928;29;20055;-89
2023/01/12 05:23:06;;;;;;;0.30;0.30;;;9.30;68.90;;;;;;4886655;29;20035;-96
2023/01/12 05:25:32;;;;;;;0.30;0.30;;;10.10;66.10;;;;;;4885409;29;20025;-90
2023/01/12 05:27:58;;;;;;;0.30;0.30;;;10.80;65.10;;;;;;4885586;29;20494;-90
2023/01/12 05:30:27;;;;;;;0.30;0.30;;;11.40;62.70;;;;;;4884985;29;20373;-90
2023/01/12 05:32:53;;;;;;;0.30;0.30;;;11.60;61.90;;;;;;4886273;29;20036;-86
2023/01/12 05:35:19;;;;;;;0.20;0.20;;;11.90;61.40;;;;;;4884946;29;20397;-90
2023/01/12 05:37:45;;;;;;;0.30;0.30;;;12.20;60.20;;;;;;4884839;29;20048;-87
2023/01/12 05:40:11;;;;;;;0.30;0.30;;;12.50;59.40;;;;;;4884954;29;20020;-86
2023/01/12 05:45:22;;;;;;;0.30;0.30;;;12.70;59.20;;;;;;4902868;29;20071;-87
2023/01/12 05:47:56;;;;;;;0.30;0.30;;;12.80;59.30;;;;;;4886151;29;20060;-85
2023/01/12 05:50:22;;;;;;;0.30;0.30;;;12.90;59.00;;;;;;4885729;29;20039;-86
2023/01/12 05:52:51;;;;;;;0.20;0.20;;;12.90;58.50;;;;;;4884669;29;20041;-85
2023/01/12 05:55:16;;;;;;;0.30;0.30;;;12.80;59.20;;;;;;4884436;29;20029;-88
2023/01/12 05:57:42;;;;;;;0.25;0.25;;;12.80;59.30;;;;;;4885503;29;20036;-90
2023/01/12 06:00:09;;;;;;;0.30;0.30;;;12.80;60.00;;;;;;4878471;29;20465;-96
2023/01/12 06:02:35;;;;;;;0.30;0.30;;;12.90;60.00;;;;;;4877940;29;20033;-87
2023/01/12 06:05:03;;;;;;;0.20;0.20;;;13.00;59.70;;;;;;4880432;29;20080;-86
2023/01/12 06:07:29;;;;;;;0.30;0.30;;;13.10;60.00;;;;;;4874835;29;20108;-93
2023/01/12 06:09:54;;;;;;;0.40;0.40;;;13.20;59.70;;;;;;4871772;29;20033;-94
2023/01/12 06:15:05;;;;;;;0.28;0.28;;;13.30;59.60;;;;;;4895491;29;20043;-87
2023/01/12 06:17:30;;;;;;;0.25;0.25;;;13.20;60.00;;;;;;4883217;29;20032;-90
2023/01/12 06:19:56;;;;;;;0.20;0.20;;;13.20;60.20;;;;;;4883363;29;20035;-94
2023/01/12 06:22:22;;;;;;;0.30;0.30;;;13.20;60.40;;;;;;4885411;29;20551;-96
2023/01/12 06:24:48;;;;;;;0.20;0.20;;;13.20;60.10;;;;;;4886165;29;20029;-95
2023/01/12 06:27:15;;;;;;;0.30;0.30;;;13.20;60.80;;;;;;4885027;29;20028;-87
2023/01/12 06:29:41;;;;;;;0.20;0.20;;;12.80;60.50;;;;;;4885127;29;20389;-87
2023/01/12 06:32:07;;;;;;;0.25;0.25;;;12.70;61.80;;;;;;4883671;29;20032;-86
2023/01/12 06:34:34;;;;;;;0.20;0.20;;;12.80;61.60;;;;;;4883474;29;20025;-86
2023/01/12 06:37:01;;;;;;;0.30;0.30;;;13.00;61.20;;;;;;4883323;29;20032;-86
2023/01/12 06:39:30;;;;;;;0.30;0.30;;;13.10;60.40;;;;;;4883697;29;20021;-88
2023/01/12 06:44:49;;;;;;;0.22;0.22;;;13.40;60.20;;;;;;4902391;29;20084;-89
2023/01/12 06:47:14;;;;;;;0.40;0.40;;;13.20;60.60;;;;;;4893542;29;20028;-88
2023/01/12 06:49:40;;;;;;;0.28;0.28;;;13.00;61.00;;;;;;4883610;29;20036;-88
2023/01/12 06:52:06;;;;;;;0.22;0.22;;;12.90;61.30;;;;;;4884035;29;20449;-84
2023/01/12 06:54:32;;;;;;;0.22;0.22;;;12.90;61.30;;;;;;4881119;29;20033;-92
2023/01/12 06:56:58;;;;;;;0.40;0.40;;;12.90;60.90;;;;;;4884490;29;20039;-94
2023/01/12 06:59:23;;;;;;;0.20;0.20;;;12.90;61.10;;;;;;4883058;29;20104;-87
2023/01/12 07:01:49;;;;;;;0.20;0.20;;;12.80;61.40;;;;;;4884241;29;20246;-88
2023/01/12 07:04:15;;;;;;;0.20;0.20;;;12.70;61.50;;;;;;4883894;29;20710;-89
2023/01/12 07:06:40;;;;;;;0.20;0.20;;;12.80;61.20;;;;;;4883091;29;20032;-87
2023/01/12 07:09:06;;;;;;;0.20;0.20;;;12.90;61.10;;;;;;4883115;29;20029;-87
2023/01/12 07:11:32;;;;;;;0.30;0.30;;;12.80;61.70;;;;;;4885808;29;20560;-87
2023/01/12 07:13:58;;;;;;;0.25;0.25;;;12.50;61.80;;;;;;4885486;29;20080;-87
2023/01/12 07:16:23;;;;;;;0.30;0.30;;;12.40;62.10;;;;;;4884557;29;20388;-93
2023/01/12 07:18:49;;;;;;;0.30;0.30;;;12.20;62.80;;;;;;4894490;29;20028;-88
2023/01/12 07:21:16;;;;;;;0.30;0.30;;;12.20;63.20;;;;;;4898270;29;20075;-88
2023/01/12 07:23:42;;;;;;;0.20;0.20;;;12.10;63.00;;;;;;4887731;29;20088;-91
2023/01/12 07:26:09;;;;;;;0.28;0.28;;;12.20;62.90;;;;;;4892647;29;20024;-87
2023/01/12 07:28:36;;;;;;;0.20;0.20;;;12.00;63.60;;;;;;4866793;29;20032;-95
2023/01/12 07:31:04;;;;;;;0.20;0.20;;;12.00;63.90;;;;;;4888609;29;20037;-87
2023/01/12 07:33:30;;;;;;;0.30;0.30;;;12.20;63.20;;;;;;4876712;29;20115;-87
2023/01/12 07:36:00;;;;;;;0.20;0.20;;;12.20;63.40;;;;;;4898252;29;20024;-96
2023/01/12 07:38:30;;;;;;;0.30;0.30;;;12.30;63.00;;;;;;4890869;29;20048;-92
2023/01/12 07:41:03;;;;;;;0.20;0.20;;;12.30;63.30;;;;;;4898474;29;20033;-94
2023/01/12 07:43:31;;;;;;;0.30;0.30;;;12.30;63.60;;;;;;4906278;29;20040;-87
2023/01/12 07:45:58;;;;;;;0.30;0.30;;;12.40;63.20;;;;;;4887407;29;20052;-91
2023/01/12 07:48:25;;;;;;;0.28;0.28;;;12.40;63.50;;;;;;4889170;29;20084;-94
2023/01/12 07:50:51;;;;;;;0.30;0.30;;;12.60;62.50;;;;;;4890351;29;20039;-85
2023/01/12 07:53:20;;;;;;;0.20;0.20;;;12.40;63.20;;;;;;4888876;29;20032;-89
2023/01/12 07:55:45;;;;;;;0.30;0.30;;;12.30;63.50;;;;;;4889001;29;20020;-86
2023/01/12 07:58:11;;;;;;;0.20;0.20;;;12.30;63.80;;;;;;4896553;29;20031;-87
2023/01/12 08:00:37;;;;;;;0.30;0.30;;;12.50;63.80;;;;;;4909439;29;20063;-96
2023/01/12 08:03:12;;;;;;;0.20;0.20;;;12.80;62.50;;;;;;4907154;29;20031;-95
2023/01/12 08:05:38;;;;;;;0.20;0.20;;;12.90;62.50;;;;;;4908362;29;20028;-96
2023/01/12 08:08:05;;;;;;;0.30;0.30;;;13.00;62.60;;;;;;4907157;29;20103;-96
2023/01/12 08:10:31;;;;;;;0.30;0.30;;;12.90;62.20;;;;;;4891023;29;20028;-92
2023/01/12 08:13:02;;;;;;;0.30;0.30;;;12.90;62.40;;;;;;4899504;29;20036;-87
2023/01/12 08:15:41;;;;;;;0.22;0.22;;;13.00;62.40;;;;;;4901768;29;20021;-96
2023/01/12 08:18:13;;;;;;;0.30;0.30;;;12.90;62.70;;;;;;4871233;29;20461;-89
2023/01/12 08:20:43;;;;;;;0.30;0.30;;;13.10;63.10;;;;;;4892148;29;20444;-88
2023/01/12 08:23:24;;;;;;;0.35;0.35;;;13.00;62.70;;;;;;4904845;29;20033;-88
2023/01/12 08:25:57;;;;;;;0.30;0.30;;;13.00;62.60;;;;;;4902959;29;20036;-94
2023/01/12 08:28:49;;;;;;;0.30;0.30;;;12.90;63.50;;;;;;4909199;29;20058;-96
2023/01/12 08:31:17;;;;;;;0.28;0.28;;;13.00;63.20;;;;;;4900635;29;20119;-88
2023/01/12 08:33:43;;;;;;;0.30;0.30;;;13.30;62.50;;;;;;4902417;29;20057;-87
2023/01/12 08:36:12;;;;;;;0.20;0.20;;;13.60;62.10;;;;;;4903705;29;20049;-90
2023/01/12 08:38:39;;;;;;;0.30;0.30;;;13.90;61.60;;;;;;4910731;29;20029;-94
2023/01/12 08:44:01;;;;;;;0.30;0.30;;;14.60;60.40;;;;;;4893475;29;20540;-88
2023/01/12 08:46:47;;;;;;;0.30;0.30;;;14.70;60.20;;;;;;4903006;29;20042;-87
2023/01/12 08:49:15;;;;;;;0.30;0.30;;;14.40;60.10;;;;;;4900518;29;20040;-87
2023/01/12 08:51:41;;;;;;;0.30;0.30;;;14.20;60.80;;;;;;4896026;29;20052;-87
2023/01/12 08:54:10;;;;;;;0.20;0.20;;;14.30;61.00;;;;;;4905117;29;20123;-86
2023/01/12 08:56:35;;;;;;;0.30;0.30;;;14.50;60.60;;;;;;4902916;29;20028;-85
2023/01/12 08:59:02;;;;;;;0.30;0.30;;;14.40;60.70;;;;;;4903150;29;20020;-88
2023/01/12 09:01:29;;;;;;;0.20;0.20;;;14.20;60.50;;;;;;4902830;29;20047;-88
2023/01/12 09:03:58;;;;;;;0.22;0.22;;;14.00;61.50;;;;;;4872061;29;20026;-86
2023/01/12 09:06:27;;;;;;;0.40;0.40;;;13.90;62.00;;;;;;4873178;29;20029;-86
2023/01/12 09:09:01;;;;;;;0.30;0.30;;;14.30;61.50;;;;;;4882106;29;20036;-88
2023/01/12 09:11:28;;;;;;;0.30;0.30;;;14.40;61.60;;;;;;4898870;29;20032;-87
2023/01/12 09:13:55;;;;;;;0.30;0.30;;;14.40;60.70;;;;;;4900555;29;20480;-89
2023/01/12 09:16:21;;;;;;;0.30;0.30;;;14.50;60.80;;;;;;4900397;29;20033;-86
2023/01/12 09:18:47;;;;;;;0.20;0.20;;;14.60;61.20;;;;;;4900587;29;20060;-86
2023/01/12 09:21:18;;;;;;;0.30;0.30;;;14.60;61.10;;;;;;4900384;29;20076;-86
2023/01/12 09:23:44;;;;;;;0.30;0.30;;;15.10;60.10;;;;;;4900140;29;20084;-85
2023/01/12 09:26:13;;;;;;;0.20;0.20;;;14.50;60.90;;;;;;4900440;29;20376;-88
2023/01/12 09:28:39;;;;;;;0.20;0.20;;;14.20;61.70;;;;;;4901719;29;20552;-86
2023/01/12 09:31:09;;;;;;;0.40;0.40;;;14.10;61.30;;;;;;4901405;29;20136;-86
2023/01/12 09:33:36;;;;;;;0.30;0.30;;;13.90;62.40;;;;;;4900513;29;20029;-84
2023/01/12 09:36:04;;;;;;;0.25;0.25;;;13.60;62.40;;;;;;4900050;29;20024;-82
2023/01/12 09:38:30;;;;;;;0.20;0.20;;;13.10;64.10;;;;;;4899794;29;20456;-87
2023/01/12 09:40:59;;;;;;;0.20;0.20;;;13.10;64.40;;;;;;4884890;29;20424;-90
2023/01/12 09:49:05;;;;;;;0.17;0.17;;;13.40;64.60;;;;;;4901333;29;20499;-86
2023/01/12 09:51:50;;;;;;;0.20;0.20;;;13.40;63.90;;;;;;4900453;29;20119;-86
2023/01/12 09:54:16;;;;;;;0.30;0.30;;;13.70;63.80;;;;;;4899586;29;20464;-86
2023/01/12 09:57:07;;;;;;;0.25;0.25;;;13.80;63.30;;;;;;4900330;29;20039;-87
2023/01/12 10:00:05;;;;;;;0.20;0.20;;;14.20;62.90;;;;;;4899622;29;20092;-86
2023/01/12 10:02:36;;;;;;;0.30;0.30;;;14.50;62.40;;;;;;4900775;29;20045;-94
2023/01/12 10:05:07;;;;;;;0.38;0.38;;;14.40;62.30;;;;;;4902696;29;20028;-87
2023/01/12 10:07:33;;;;;;;0.40;0.40;;;14.80;61.60;;;;;;4899724;29;20025;-86
2023/01/12 10:09:59;;;;;;;0.40;0.40;;;14.80;61.00;;;;;;4899248;29;20037;-82
2023/01/12 10:12:51;;;;;;;0.40;0.40;;;14.70;61.00;;;;;;4901474;29;20047;-92
2023/01/12 10:15:35;;;;;;;0.30;0.30;;;14.60;61.50;;;;;;4900755;29;20033;-86
2023/01/12 10:18:19;;;;;;;0.30;0.30;;;14.90;61.80;;;;;;4899797;29;20029;-86
2023/01/12 10:20:45;;;;;;;0.30;0.30;;;15.10;60.60;;;;;;4901225;29;20074;-86
2023/01/12 10:23:23;;;;;;;0.20;0.20;;;14.90;61.20;;;;;;4899888;29;20404;-83
2023/01/12 10:25:56;;;;;;;0.40;0.40;;;14.90;61.00;;;;;;4899317;29;20032;-86
2023/01/12 10:28:29;;;;;;;0.30;0.30;;;14.80;61.40;;;;;;4899222;29;20032;-84
2023/01/12 10:30:55;;;;;;;0.22;0.22;;;14.80;61.00;;;;;;4899255;29;20029;-86
2023/01/12 10:33:29;;;;;;;0.30;0.30;;;14.90;61.30;;;;;;4899023;29;20044;-84
2023/01/12 10:36:09;;;;;;;0.22;0.22;;;15.20;60.80;;;;;;4899544;29;20051;-86
2023/01/12 10:38:51;;;;;;;0.30;0.30;;;15.00;60.60;;;;;;4899518;29;20421;-84
2023/01/12 10:41:25;;;;;;;0.30;0.30;;;15.10;60.80;;;;;;4899475;29;20502;-85
2023/01/12 10:43:57;;;;;;;0.30;0.30;;;15.50;60.90;;;;;;4898827;29;20412;-84
2023/01/12 10:46:26;;;;;;;0.30;0.30;;;15.90;59.60;;;;;;4898301;29;20084;-85
2023/01/12 10:49:14;;;;;;;0.30;0.30;;;15.80;58.90;;;;;;4899399;29;20036;-94
2023/01/12 10:51:58;;;;;;;0.35;0.35;;;15.40;59.40;;;;;;4915103;29;20116;-89
2023/01/12 10:54:30;;;;;;;0.40;0.40;;;15.00;61.00;;;;;;4916033;29;20067;-95
2023/01/12 10:57:18;;;;;;;0.30;0.30;;;14.80;61.30;;;;;;4916628;29;20539;-96
2023/01/12 10:59:58;;;;;;;0.38;0.38;;;14.90;60.70;;;;;;4914916;29;20453;-95
2023/01/12 11:02:27;;;;;;;0.20;0.20;;;15.10;60.50;;;;;;4920337;29;20032;-95
2023/01/12 11:04:53;;;;;;;0.28;0.28;;;15.30;60.80;;;;;;4905613;29;20036;-86
2023/01/12 11:07:29;;;;;;;0.30;0.30;;;15.50;59.60;;;;;;4898620;29;20027;-88
2023/01/12 11:10:16;;;;;;;0.20;0.20;;;15.50;59.20;;;;;;4899275;29;20028;-84
2023/01/12 11:12:41;;;;;;;0.40;0.40;;;15.60;59.70;;;;;;4899103;29;20032;-83
2023/01/12 11:15:10;;;;;;;0.32;0.32;;;15.40;59.80;;;;;;4898398;29;20031;-85
2023/01/12 11:17:49;;;;;;;0.20;0.20;;;15.50;59.90;;;;;;4897945;29;20396;-85
2023/01/12 11:20:29;;;;;;;0.20;0.20;;;15.50;59.80;;;;;;4909191;29;20039;-92
2023/01/12 11:22:59;;;;;;;0.30;0.30;;;16.10;59.60;;;;;;4911262;29;20070;-90
2023/01/12 11:25:31;;;;;;;0.30;0.30;;;16.70;58.10;;;;;;4908363;29;20024;-96
2023/01/12 11:28:27;;;;;;;0.20;0.20;;;17.10;57.20;;;;;;4898911;29;20024;-95
2023/01/12 11:31:18;;;;;;;0.30;0.30;;;16.90;57.10;;;;;;4907332;29;20036;-93
2023/01/12 11:34:01;;;;;;;0.10;0.10;;;16.40;57.70;;;;;;4912803;29;20064;-96
2023/01/12 11:36:31;;;;;;;0.30;0.30;;;15.70;59.30;;;;;;4900370;29;20028;-86
2023/01/12 11:39:13;;;;;;;0.28;0.28;;;15.30;60.00;;;;;;4898534;29;20033;-86
2023/01/12 11:44:44;;;;;;;0.30;0.30;;;15.20;60.40;;;;;;4898847;29;20047;-80
2023/01/12 11:47:14;;;;;;;0.30;0.30;;;14.80;60.90;;;;;;4898121;29;20071;-86
2023/01/12 11:49:40;;;;;;;;;;;14.40;62.10;;;;;;4898789;29;20381;-84
2023/01/12 11:52:12;;;;;;;0.30;0.30;;;14.60;62.30;;;;;;4897666;29;19915;-85
2023/01/12 11:54:39;;;;;;;0.40;0.40;;;14.90;61.20;;;;;;4899051;29;20120;-84
2023/01/12 11:57:26;;;;;;;0.20;0.20;;;14.60;61.70;;;;;;4901023;29;20037;-83
2023/01/12 12:00:04;;;;;;;0.20;0.20;;;14.70;61.80;;;;;;4898799;29;20464;-87
2023/01/12 12:02:42;;;;;;;0.38;0.38;;;14.50;62.10;;;;;;4898941;29;20051;-84
2023/01/12 12:05:43;;;;;;;0.30;0.30;;;14.20;61.80;;;;;;4901538;29;20040;-95
2023/01/12 12:08:36;;;;;;;0.20;0.20;;;13.90;63.30;;;;;;4860971;29;20029;-96
2023/01/12 12:11:48;;;;;;;0.20;0.20;;;14.20;63.30;;;;;;4858714;29;20049;-90
2023/01/12 12:14:53;;;;;;;0.25;0.25;;;14.40;62.80;;;;;;4859983;29;20489;-94
2023/01/12 12:17:19;;;;;;;0.20;0.20;;;14.70;61.60;;;;;;4868236;29;20053;-92
2023/01/12 12:20:03;;;;;;;0.30;0.30;;;14.80;61.70;;;;;;4852769;29;20021;-95
2023/01/12 12:23:13;;;;;;;0.20;0.20;;;15.00;61.80;;;;;;4864655;29;20113;-93
2023/01/12 12:25:49;;;;;;;0.32;0.32;;;14.90;61.20;;;;;;4849240;29;20474;-94
2023/01/12 12:28:37;;;;;;;0.22;0.22;;;14.90;61.40;;;;;;4851734;29;20038;-91
2023/01/12 12:31:24;;;;;;;0.35;0.35;;;14.70;60.80;;;;;;4852777;29;20553;-96
2023/01/12 12:33:56;;;;;;;0.30;0.30;;;14.60;61.60;;;;;;4854102;29;20385;-91
2023/01/12 12:36:32;;;;;;;0.40;0.40;;;14.50;62.10;;;;;;4846045;29;20034;-83
2023/01/12 12:39:13;;;;;;;0.30;0.30;;;14.80;61.10;;;;;;4843870;29;20144;-87
2023/01/12 12:45:16;;;;;;;0.20;0.20;;;14.10;62.90;;;;;;4899898;29;19914;-85
2023/01/12 12:48:00;;;;;;;0.30;0.30;;;14.10;62.90;;;;;;4903373;29;20067;-86
2023/01/12 12:50:28;;;;;;;0.20;0.20;;;13.90;63.10;;;;;;4903680;29;20032;-94
2023/01/12 12:53:32;;;;;;;0.30;0.30;;;14.00;62.90;;;;;;4913114;29;20105;-95
2023/01/12 12:56:02;;;;;;;0.20;0.20;;;14.30;62.10;;;;;;4870842;29;20046;-95
2023/01/12 12:58:52;;;;;;;0.30;0.30;;;14.00;62.80;;;;;;4854346;29;20041;-96
2023/01/12 13:01:23;;;;;;;0.32;0.32;;;13.80;63.00;;;;;;4850476;29;20098;-95
2023/01/12 13:03:52;;;;;;;0.22;0.22;;;13.90;63.00;;;;;;4869453;29;20029;-96
2023/01/12 13:06:23;;;;;;;0.40;0.40;;;14.20;62.70;;;;;;4849966;29;20042;-84
2023/01/12 13:08:54;;;;;;;0.20;0.20;;;14.30;62.00;;;;;;4845711;29;20029;-87
2023/01/12 13:11:53;;;;;;;0.20;0.20;;;14.20;62.20;;;;;;4848010;29;20169;-86
2023/01/12 13:14:37;;;;;;;0.20;0.20;;;13.90;63.20;;;;;;4863451;29;20037;-86
2023/01/12 13:17:02;;;;;;;0.20;0.20;;;13.80;63.50;;;;;;4865350;29;20037;-85
2023/01/12 13:19:34;;;;;;;0.30;0.30;;;13.90;63.50;;;;;;4847878;29;20024;-83
2023/01/12 13:22:28;;;;;;;0.30;0.30;;;13.80;63.40;;;;;;4865899;29;20057;-85
2023/01/12 13:25:00;;;;;;;0.30;0.30;;;13.60;63.90;;;;;;4848211;29;20543;-94
2023/01/12 13:27:53;;;;;;;0.30;0.30;;;13.60;63.80;;;;;;4847676;29;20081;-86
2023/01/12 13:30:22;;;;;;;0.20;0.20;;;13.70;63.80;;;;;;4846758;29;20030;-84
2023/01/12 13:33:15;;;;;;;0.20;0.20;;;13.90;63.40;;;;;;4886505;29;20057;-87
2023/01/12 13:35:43;;;;;;;0.25;0.25;;;14.00;63.00;;;;;;4900644;29;20456;-86
2023/01/12 13:38:36;;;;;;;0.20;0.20;;;14.20;62.40;;;;;;4900017;29;20361;-86
2023/01/12 13:41:04;;;;;;;0.30;0.30;;;14.20;62.20;;;;;;4900733;29;20064;-83
2023/01/12 13:43:37;;;;;;;0.20;0.20;;;13.90;63.20;;;;;;4900753;29;20127;-86
2023/01/12 13:46:03;;;;;;;0.20;0.20;;;13.90;62.70;;;;;;4899851;29;20051;-83
2023/01/12 13:48:31;;;;;;;0.20;0.20;;;13.80;63.00;;;;;;4899960;29;20035;-84
2023/01/12 13:51:19;;;;;;;0.20;0.20;;;13.80;63.60;;;;;;4900771;29;20503;-86
2023/01/12 13:54:14;;;;;;;0.20;0.20;;;14.10;62.90;;;;;;4901374;29;20111;-87
2023/01/12 13:56:41;;;;;;;0.20;0.20;;;14.20;62.60;;;;;;4900179;29;20063;-81